sensor_id;sensor_type;location;lat;lon;timestamp;pressure;altitude;pressure_sealevel;temperature;humidity
21129;BME280;10722;51.910;8.352;2023-02-23T00:00:18;100499.78;;;8.02;100.00
21129;BME280;10722;51.910;8.352;2023-02-23T00:03:04;100498.19;;;8.07;100.00
21129;BME280;10722;51.910;8.352;2023-02-23T00:05:49;100507.03;;;8.19;100.00
21129;BME280;10722;51.910;8.352;2023-02-23T00:08:35;100501.31;;;8.30;100.00
21129;BME280;10722;51.910;8.352;2023-02-23T00:11:21;100501.41;;;8.35;100.00
21129;BME280;10722;51.910;8.352;2023-02-23T00:14:07;100496.56;;;8.47;100.00
21129;BME280;10722;51.910;8.352;2023-02-23T00:16:54;100493.97;;;8.47;100.00
21129;BME280;10722;51.910;8.352;2023-02-23T00:19:39;100491.47;;;8.49;100.00
21129;BME280;10722;51.910;8.352;2023-02-23T00:22:24;100493.13;;;8.47;100.00
21129;BME280;10722;51.910;8.352;2023-02-23T00:25:10;100492.72;;;8.68;100.00
21129;BME280;10722;51.910;8.352;2023-02-23T00:27:55;100491.72;;;8.61;100.00
21129;BME280;10722;51.910;8.352;2023-02-23T00:30:40;100490.84;;;8.61;100.00
21129;BME280;10722;51.910;8.352;2023-02-23T00:33:25;100486.19;;;8.44;100.00
21129;BME280;10722;51.910;8.352;2023-02-23T00:36:12;100487.59;;;8.31;100.00
21129;BME280;10722;51.910;8.352;2023-02-23T00:38:59;100479.63;;;8.21;100.00
21129;BME280;10722;51.910;8.352;2023-02-23T00:41:45;100477.88;;;8.20;100.00
21129;BME280;10722;51.910;8.352;2023-02-23T00:44:30;100482.19;;;8.21;100.00
21129;BME280;10722;51.910;8.352;2023-02-23T00:47:16;100481.59;;;8.32;100.00
21129;BME280;10722;51.910;8.352;2023-02-23T00:50:02;100487.09;;;8.46;100.00
21129;BME280;10722;51.910;8.352;2023-02-23T00:52:47;100488.53;;;8.35;100.00
21129;BME280;10722;51.910;8.352;2023-02-23T00:55:31;100491.47;;;8.49;100.00
21129;BME280;10722;51.910;8.352;2023-02-23T00:58:16;100491.41;;;8.47;100.00
21129;BME280;10722;51.910;8.352;2023-02-23T01:01:06;100496.25;;;8.34;100.00
21129;BME280;10722;51.910;8.352;2023-02-23T01:03:52;100490.25;;;8.35;100.00
21129;BME280;10722;51.910;8.352;2023-02-23T01:06:37;100503.13;;;8.35;100.00
21129;BME280;10722;51.910;8.352;2023-02-23T01:09:23;100501.22;;;8.26;100.00
21129;BME280;10722;51.910;8.352;2023-02-23T01:12:11;100501.22;;;8.26;100.00
21129;BME280;10722;51.910;8.352;2023-02-23T01:14:57;100503.16;;;8.36;100.00
21129;BME280;10722;51.910;8.352;2023-02-23T01:17:48;100500.78;;;8.44;100.00
21129;BME280;10722;51.910;8.352;2023-02-23T01:20:35;100503.31;;;8.41;100.00
21129;BME280;10722;51.910;8.352;2023-02-23T01:23:20;100500.50;;;8.33;100.00
21129;BME280;10722;51.910;8.352;2023-02-23T01:26:05;100505.59;;;8.30;100.00
21129;BME280;10722;51.910;8.352;2023-02-23T01:28:56;100503.59;;;8.18;100.00
21129;BME280;10722;51.910;8.352;2023-02-23T01:31:44;100507.75;;;8.12;100.00
21129;BME280;10722;51.910;8.352;2023-02-23T01:34:30;100512.84;;;8.10;100.00
21129;BME280;10722;51.910;8.352;2023-02-23T01:37:15;100507.53;;;8.39;100.00
21129;BME280;10722;51.910;8.352;2023-02-23T01:40:00;100510.44;;;8.52;100.00
21129;BME280;10722;51.910;8.352;2023-02-23T01:42:45;100506.66;;;8.38;100.00
21129;BME280;10722;51.910;8.352;2023-02-23T01:45:34;100505.88;;;8.39;100.00
21129;BME280;10722;51.910;8.352;2023-02-23T01:48:22;100509.94;;;8.32;100.00
21129;BME280;10722;51.910;8.352;2023-02-23T01:51:11;100504.06;;;8.38;100.00
21129;BME280;10722;51.910;8.352;2023-02-23T01:54:02;100493.00;;;8.41;100.00
21129;BME280;10722;51.910;8.352;2023-02-23T01:56:52;100501.03;;;8.55;100.00
21129;BME280;10722;51.910;8.352;2023-02-23T01:59:42;100509.38;;;8.44;100.00
21129;BME280;10722;51.910;8.352;2023-02-23T02:02:36;100509.31;;;8.41;100.00
21129;BME280;10722;51.910;8.352;2023-02-23T02:05:22;100501.41;;;8.35;100.00
21129;BME280;10722;51.910;8.352;2023-02-23T02:08:07;100503.28;;;8.39;100.00
21129;BME280;10722;51.910;8.352;2023-02-23T02:10:54;100508.59;;;8.47;100.00
21129;BME280;10722;51.910;8.352;2023-02-23T02:13:39;100507.00;;;8.52;100.00
21129;BME280;10722;51.910;8.352;2023-02-23T02:16:28;100495.69;;;8.47;100.00
21129;BME280;10722;51.910;8.352;2023-02-23T02:31:58;100500.44;;;8.66;100.00
21129;BME280;10722;51.910;8.352;2023-02-23T02:46:35;100491.66;;;8.58;100.00
21129;BME280;10722;51.910;8.352;2023-02-23T02:49:28;100490.16;;;8.68;100.00
21129;BME280;10722;51.910;8.352;2023-02-23T02:52:39;100489.81;;;8.52;100.00
21129;BME280;10722;51.910;8.352;2023-02-23T02:55:29;100488.75;;;8.44;100.00
21129;BME280;10722;51.910;8.352;2023-02-23T02:58:16;100483.53;;;8.41;100.00
21129;BME280;10722;51.910;8.352;2023-02-23T03:01:07;100486.22;;;8.46;100.00
21129;BME280;10722;51.910;8.352;2023-02-23T03:03:56;100486.47;;;8.57;100.00
21129;BME280;10722;51.910;8.352;2023-02-23T03:06:48;100487.34;;;8.59;100.00
21129;BME280;10722;51.910;8.352;2023-02-23T03:09:57;100486.59;;;8.63;100.00
21129;BME280;10722;51.910;8.352;2023-02-23T03:13:31;100486.47;;;8.57;100.00
21129;BME280;10722;51.910;8.352;2023-02-23T03:16:25;100483.78;;;8.50;100.00
21129;BME280;10722;51.910;8.352;2023-02-23T03:19:25;100483.66;;;8.47;100.00
21129;BME280;10722;51.910;8.352;2023-02-23T03:22:20;100487.09;;;8.46;100.00
21129;BME280;10722;51.910;8.352;2023-02-23T03:25:17;100487.09;;;8.46;100.00
21129;BME280;10722;51.910;8.352;2023-02-23T03:28:19;100487.22;;;8.51;100.00
21129;BME280;10722;51.910;8.352;2023-02-23T03:33:57;100498.34;;;8.50;100.00
21129;BME280;10722;51.910;8.352;2023-02-23T03:36:47;100497.66;;;8.57;100.00
21129;BME280;10722;51.910;8.352;2023-02-23T03:39:46;100495.56;;;8.41;100.00
21129;BME280;10722;51.910;8.352;2023-02-23T03:42:35;100493.63;;;8.32;100.00
21129;BME280;10722;51.910;8.352;2023-02-23T03:45:23;100496.41;;;8.40;100.00
21129;BME280;10722;51.910;8.352;2023-02-23T03:48:11;100497.41;;;8.45;100.00
21129;BME280;10722;51.910;8.352;2023-02-23T03:51:02;100497.41;;;8.45;100.00
21129;BME280;10722;51.910;8.352;2023-02-23T03:56:51;100497.47;;;8.48;100.00
21129;BME280;10722;51.910;8.352;2023-02-23T03:59:49;100496.69;;;8.52;100.00
21129;BME280;10722;51.910;8.352;2023-02-23T04:02:38;100501.84;;;8.52;100.00
21129;BME280;10722;51.910;8.352;2023-02-23T04:05:27;100493.19;;;8.50;100.00
21129;BME280;10722;51.910;8.352;2023-02-23T04:08:16;100496.56;;;8.47;100.00
21129;BME280;10722;51.910;8.352;2023-02-23T04:11:14;100496.47;;;8.43;100.00
21129;BME280;10722;51.910;8.352;2023-02-23T04:14:07;100493.09;;;8.45;100.00
21129;BME280;10722;51.910;8.352;2023-02-23T04:16:59;100502.56;;;8.46;100.00
21129;BME280;10722;51.910;8.352;2023-02-23T04:19:51;100509.22;;;8.38;100.00
21129;BME280;10722;51.910;8.352;2023-02-23T04:22:36;100505.72;;;8.36;100.00
21129;BME280;10722;51.910;8.352;2023-02-23T04:25:21;100498.84;;;8.35;100.00
21129;BME280;10722;51.910;8.352;2023-02-23T04:28:07;100499.84;;;8.40;100.00
21129;BME280;10722;51.910;8.352;2023-02-23T04:30:53;100508.53;;;8.44;100.00
21129;BME280;10722;51.910;8.352;2023-02-23T04:33:38;100504.16;;;8.41;100.00
21129;BME280;10722;51.910;8.352;2023-02-23T04:36:23;100501.63;;;8.43;100.00
21129;BME280;10722;51.910;8.352;2023-02-23T04:39:08;100506.78;;;8.43;100.00
21129;BME280;10722;51.910;8.352;2023-02-23T04:41:53;100500.78;;;8.42;100.00
21129;BME280;10722;51.910;8.352;2023-02-23T04:44:38;100502.44;;;8.40;100.00
21129;BME280;10722;51.910;8.352;2023-02-23T04:47:23;100499.88;;;8.42;100.00
21129;BME280;10722;51.910;8.352;2023-02-23T04:50:10;100499.13;;;8.47;100.00
21129;BME280;10722;51.910;8.352;2023-02-23T04:52:55;100506.00;;;8.45;100.00
21129;BME280;10722;51.910;8.352;2023-02-23T04:55:41;100506.94;;;8.49;100.00
21129;BME280;10722;51.910;8.352;2023-02-23T04:58:26;100498.13;;;8.39;100.00
21129;BME280;10722;51.910;8.352;2023-02-23T05:01:11;100504.06;;;8.38;100.00
21129;BME280;10722;51.910;8.352;2023-02-23T05:03:57;100505.00;;;8.40;100.00
21129;BME280;10722;51.910;8.352;2023-02-23T05:06:43;100500.56;;;8.36;100.00
21129;BME280;10722;51.910;8.352;2023-02-23T05:09:29;100510.81;;;8.33;100.00
21129;BME280;10722;51.910;8.352;2023-02-23T05:12:14;100509.03;;;8.29;100.00
21129;BME280;10722;51.910;8.352;2023-02-23T05:14:59;100496.06;;;8.26;100.00
21129;BME280;10722;51.910;8.352;2023-02-23T05:17:44;100508.09;;;8.27;100.00
21129;BME280;10722;51.910;8.352;2023-02-23T05:20:30;100511.59;;;8.30;100.00
21129;BME280;10722;51.910;8.352;2023-02-23T05:23:15;100503.94;;;8.32;100.00
21129;BME280;10722;51.910;8.352;2023-02-23T05:26:03;100513.38;;;8.31;100.00
21129;BME280;10722;51.910;8.352;2023-02-23T05:28:48;100506.38;;;8.26;100.00
21129;BME280;10722;51.910;8.352;2023-02-23T05:31:33;100509.53;;;8.14;100.00
21129;BME280;10722;51.910;8.352;2023-02-23T05:34:18;100513.91;;;8.17;100.00
21129;BME280;10722;51.910;8.352;2023-02-23T05:37:04;100504.41;;;8.16;100.00
21129;BME280;10722;51.910;8.352;2023-02-23T05:39:49;100506.88;;;8.11;100.00
21129;BME280;10722;51.910;8.352;2023-02-23T05:42:34;100503.47;;;8.14;100.00
21129;BME280;10722;51.910;8.352;2023-02-23T05:45:19;100502.66;;;8.15;100.00
21129;BME280;10722;51.910;8.352;2023-02-23T05:48:05;100511.22;;;8.14;100.00
21129;BME280;10722;51.910;8.352;2023-02-23T05:50:50;100514.75;;;8.17;100.00
21129;BME280;10722;51.910;8.352;2023-02-23T05:53:36;100512.34;;;8.25;100.00
21129;BME280;10722;51.910;8.352;2023-02-23T05:56:24;100516.22;;;8.06;100.00
21129;BME280;10722;51.910;8.352;2023-02-23T05:59:09;100511.91;;;8.06;100.00
21129;BME280;10722;51.910;8.352;2023-02-23T06:01:54;100513.44;;;7.98;100.00
21129;BME280;10722;51.910;8.352;2023-02-23T06:04:40;100516.22;;;8.06;100.00
21129;BME280;10722;51.910;8.352;2023-02-23T06:07:25;100525.00;;;8.14;100.00
21129;BME280;10722;51.910;8.352;2023-02-23T06:10:11;100529.22;;;8.12;100.00
21129;BME280;10722;51.910;8.352;2023-02-23T06:12:56;100524.03;;;8.11;100.00
21129;BME280;10722;51.910;8.352;2023-02-23T06:15:42;100535.13;;;8.08;100.00
21129;BME280;10722;51.910;8.352;2023-02-23T06:18:28;100535.31;;;8.16;100.00
21129;BME280;10722;51.910;8.352;2023-02-23T06:21:14;100531.81;;;8.14;100.00
21129;BME280;10722;51.910;8.352;2023-02-23T06:23:59;100537.97;;;8.19;100.00
21129;BME280;10722;51.910;8.352;2023-02-23T06:26:44;100540.41;;;8.13;100.00
21129;BME280;10722;51.910;8.352;2023-02-23T06:29:32;100540.53;;;8.17;100.00
21129;BME280;10722;51.910;8.352;2023-02-23T06:32:17;100538.94;;;8.22;100.00
21129;BME280;10722;51.910;8.352;2023-02-23T06:35:04;100539.81;;;8.23;100.00
21129;BME280;10722;51.910;8.352;2023-02-23T06:37:49;100543.19;;;8.22;100.00
21129;BME280;10722;51.910;8.352;2023-02-23T06:40:49;100547.81;;;8.35;100.00
21129;BME280;10722;51.910;8.352;2023-02-23T06:43:37;100548.53;;;8.28;100.00
21129;BME280;10722;51.910;8.352;2023-02-23T06:46:23;100550.19;;;8.26;100.00
21129;BME280;10722;51.910;8.352;2023-02-23T06:49:10;100558.72;;;8.25;100.00
21129;BME280;10722;51.910;8.352;2023-02-23T06:51:55;100558.00;;;8.29;100.00
21129;BME280;10722;51.910;8.352;2023-02-23T06:54:41;100567.44;;;8.30;100.00
21129;BME280;10722;51.910;8.352;2023-02-23T06:57:26;100563.25;;;8.34;100.00
21129;BME280;10722;51.910;8.352;2023-02-23T07:00:12;100571.88;;;8.34;100.00
21129;BME280;10722;51.910;8.352;2023-02-23T07:02:57;100579.59;;;8.34;100.00
21129;BME280;10722;51.910;8.352;2023-02-23T07:05:43;100572.72;;;8.35;100.00
21129;BME280;10722;51.910;8.352;2023-02-23T07:08:28;100565.91;;;8.37;100.00
21129;BME280;10722;51.910;8.352;2023-02-23T07:11:14;100569.28;;;8.34;100.00
21129;BME280;10722;51.910;8.352;2023-02-23T07:14:00;100580.53;;;8.38;100.00
21129;BME280;10722;51.910;8.352;2023-02-23T07:16:46;100579.78;;;8.40;100.00
21129;BME280;10722;51.910;8.352;2023-02-23T07:19:31;100583.19;;;8.39;100.00
21129;BME280;10722;51.910;8.352;2023-02-23T07:22:16;100583.22;;;8.41;100.00
21129;BME280;10722;51.910;8.352;2023-02-23T07:25:02;100578.81;;;8.38;100.00
21129;BME280;10722;51.910;8.352;2023-02-23T07:27:47;100584.94;;;8.42;100.00
21129;BME280;10722;51.910;8.352;2023-02-23T07:30:32;100577.91;;;8.36;100.00
21129;BME280;10722;51.910;8.352;2023-02-23T07:33:17;100584.94;;;8.40;100.00
21129;BME280;10722;51.910;8.352;2023-02-23T07:36:03;100583.06;;;8.36;100.00
21129;BME280;10722;51.910;8.352;2023-02-23T07:38:48;100586.81;;;8.47;100.00
21129;BME280;10722;51.910;8.352;2023-02-23T07:41:34;100589.44;;;8.49;100.00
21129;BME280;10722;51.910;8.352;2023-02-23T07:44:22;100590.28;;;8.49;100.00
21129;BME280;10722;51.910;8.352;2023-02-23T07:47:07;100595.38;;;8.46;100.00
21129;BME280;10722;51.910;8.352;2023-02-23T07:49:58;100593.53;;;8.41;100.00
21129;BME280;10722;51.910;8.352;2023-02-23T07:52:43;100595.25;;;8.40;100.00
21129;BME280;10722;51.910;8.352;2023-02-23T07:55:29;100594.44;;;8.43;100.00
21129;BME280;10722;51.910;8.352;2023-02-23T07:58:14;100602.31;;;8.49;100.00
21129;BME280;10722;51.910;8.352;2023-02-23T08:01:03;100611.91;;;8.55;100.00
21129;BME280;10722;51.910;8.352;2023-02-23T08:03:48;100606.69;;;8.53;100.00
21129;BME280;10722;51.910;8.352;2023-02-23T08:06:33;100610.19;;;8.55;100.00
21129;BME280;10722;51.910;8.352;2023-02-23T08:09:19;100613.56;;;8.52;100.00
21129;BME280;10722;51.910;8.352;2023-02-23T08:12:05;100609.19;;;8.48;100.00
21129;BME280;10722;51.910;8.352;2023-02-23T08:14:56;100610.97;;;8.51;100.00
21129;BME280;10722;51.910;8.352;2023-02-23T08:17:40;100608.31;;;8.48;100.00
21129;BME280;10722;51.910;8.352;2023-02-23T08:20:26;100604.78;;;8.44;100.00
21129;BME280;10722;51.910;8.352;2023-02-23T08:23:14;100603.09;;;8.45;100.00
21129;BME280;10722;51.910;8.352;2023-02-23T08:26:03;100599.56;;;8.41;100.00
21129;BME280;10722;51.910;8.352;2023-02-23T08:28:51;100613.41;;;8.45;100.00
21129;BME280;10722;51.910;8.352;2023-02-23T08:31:36;100615.25;;;8.50;100.00
21129;BME280;10722;51.910;8.352;2023-02-23T08:34:22;100617.94;;;8.55;100.00
21129;BME280;10722;51.910;8.352;2023-02-23T08:37:07;100613.63;;;8.54;100.00
21129;BME280;10722;51.910;8.352;2023-02-23T08:39:53;100624.94;;;8.61;100.00
21129;BME280;10722;51.910;8.352;2023-02-23T08:42:38;100620.81;;;8.67;100.00
21129;BME280;10722;51.910;8.352;2023-02-23T08:45:24;100624.22;;;8.66;100.00
21129;BME280;10722;51.910;8.352;2023-02-23T08:48:09;100622.63;;;8.71;100.00
21129;BME280;10722;51.910;8.352;2023-02-23T08:50:56;100620.84;;;8.69;100.00
21129;BME280;10722;51.910;8.352;2023-02-23T08:53:42;100620.72;;;8.64;100.00
21129;BME280;10722;51.910;8.352;2023-02-23T08:56:27;100624.28;;;8.69;100.00
21129;BME280;10722;51.910;8.352;2023-02-23T08:59:13;100625.09;;;8.67;100.00
21129;BME280;10722;51.910;8.352;2023-02-23T09:01:58;100624.16;;;8.63;100.00
21129;BME280;10722;51.910;8.352;2023-02-23T09:04:49;100629.28;;;8.62;100.00
21129;BME280;10722;51.910;8.352;2023-02-23T09:07:50;100635.41;;;8.67;100.00
21129;BME280;10722;51.910;8.352;2023-02-23T09:10:40;100631.94;;;8.65;100.00
21129;BME280;10722;51.910;8.352;2023-02-23T09:13:26;100638.81;;;8.66;100.00
21129;BME280;10722;51.910;8.352;2023-02-23T09:16:11;100637.16;;;8.68;100.00
21129;BME280;10722;51.910;8.352;2023-02-23T09:18:56;100639.75;;;8.68;100.00
21129;BME280;10722;51.910;8.352;2023-02-23T09:21:42;100639.88;;;8.74;100.00
21129;BME280;10722;51.910;8.352;2023-02-23T09:24:27;100639.03;;;8.75;100.00
21129;BME280;10722;51.910;8.352;2023-02-23T09:27:13;100643.25;;;8.71;100.00
21129;BME280;10722;51.910;8.352;2023-02-23T09:29:58;100639.88;;;8.74;100.00
21129;BME280;10722;51.910;8.352;2023-02-23T09:32:44;100640.06;;;8.82;100.00
21129;BME280;10722;51.910;8.352;2023-02-23T09:35:29;100639.09;;;8.78;100.00
21129;BME280;10722;51.910;8.352;2023-02-23T09:38:14;100646.75;;;8.73;100.00
21129;BME280;10722;51.910;8.352;2023-02-23T09:40:59;100632.16;;;8.74;100.00
21129;BME280;10722;51.910;8.352;2023-02-23T09:43:50;100648.38;;;8.70;100.00
21129;BME280;10722;51.910;8.352;2023-02-23T09:49:58;100651.31;;;8.85;100.00
21129;BME280;10722;51.910;8.352;2023-02-23T09:52:46;100648.94;;;8.93;100.00
21129;BME280;10722;51.910;8.352;2023-02-23T09:55:34;100653.28;;;8.95;100.00
21129;BME280;10722;51.910;8.352;2023-02-23T09:58:30;100654.03;;;8.90;100.00
21129;BME280;10722;51.910;8.352;2023-02-23T10:10:46;100656.69;;;8.94;100.00
21129;BME280;10722;51.910;8.352;2023-02-23T10:20:05;100655.03;;;8.98;100.00
21129;BME280;10722;51.910;8.352;2023-02-23T10:23:02;100659.28;;;8.94;100.00
21129;BME280;10722;51.910;8.352;2023-02-23T10:25:50;100660.25;;;9.00;100.00
21129;BME280;10722;51.910;8.352;2023-02-23T10:28:40;100657.66;;;9.00;100.00
21129;BME280;10722;51.910;8.352;2023-02-23T10:31:29;100660.31;;;9.01;100.00
21129;BME280;10722;51.910;8.352;2023-02-23T10:34:17;100662.78;;;8.98;100.00
21129;BME280;10722;51.910;8.352;2023-02-23T10:37:05;100662.94;;;9.04;100.00
21129;BME280;10722;51.910;8.352;2023-02-23T10:39:51;100676.84;;;9.11;100.00
21129;BME280;10722;51.910;8.352;2023-02-23T10:42:37;100660.25;;;9.00;100.00
21129;BME280;10722;51.910;8.352;2023-02-23T10:45:24;100661.19;;;9.03;100.00
21129;BME280;10722;51.910;8.352;2023-02-23T10:51:06;100665.28;;;8.95;100.00
21129;BME280;10722;51.910;8.352;2023-02-23T10:53:56;100659.38;;;8.63;100.00
21129;BME280;10722;51.910;8.352;2023-02-23T10:56:51;100656.28;;;8.76;100.00
21129;BME280;10722;51.910;8.352;2023-02-23T10:59:36;100659.38;;;8.63;100.00
21129;BME280;10722;51.910;8.352;2023-02-23T11:02:24;100659.38;;;8.63;100.00
21129;BME280;10722;51.910;8.352;2023-02-23T11:14:15;100665.22;;;8.90;100.00
21129;BME280;10722;51.910;8.352;2023-02-23T11:17:01;100665.13;;;8.87;100.00
21129;BME280;10722;51.910;8.352;2023-02-23T11:19:46;100661.06;;;8.97;100.00
21129;BME280;10722;51.910;8.352;2023-02-23T11:22:34;100658.47;;;8.95;100.00
21129;BME280;10722;51.910;8.352;2023-02-23T11:25:28;100663.31;;;8.83;100.00
21129;BME280;10722;51.910;8.352;2023-02-23T11:28:17;100660.06;;;8.90;100.00
21129;BME280;10722;51.910;8.352;2023-02-23T11:31:12;100657.41;;;8.87;100.00
21129;BME280;10722;51.910;8.352;2023-02-23T11:34:03;100656.63;;;8.91;100.00
21129;BME280;10722;51.910;8.352;2023-02-23T11:37:05;100647.41;;;8.65;100.00
21129;BME280;10722;51.910;8.352;2023-02-23T11:39:59;100646.38;;;8.58;100.00
21129;BME280;10722;51.910;8.352;2023-02-23T11:42:56;100653.63;;;8.73;100.00
21129;BME280;10722;51.910;8.352;2023-02-23T11:45:56;100645.97;;;8.78;100.00
21129;BME280;10722;51.910;8.352;2023-02-23T11:48:56;100656.56;;;8.88;100.00
21129;BME280;10722;51.910;8.352;2023-02-23T11:51:47;100649.44;;;8.78;100.00
21129;BME280;10722;51.910;8.352;2023-02-23T11:54:34;100644.25;;;8.78;100.00
21129;BME280;10722;51.910;8.352;2023-02-23T11:57:21;100648.41;;;8.71;100.00
21129;BME280;10722;51.910;8.352;2023-02-23T12:00:19;100648.38;;;8.70;100.00
21129;BME280;10722;51.910;8.352;2023-02-23T12:03:06;100649.72;;;8.90;100.00
21129;BME280;10722;51.910;8.352;2023-02-23T12:05:55;100650.47;;;8.86;100.00
21129;BME280;10722;51.910;8.352;2023-02-23T12:08:45;100654.75;;;8.84;100.00
21129;BME280;10722;51.910;8.352;2023-02-23T12:11:36;100642.31;;;8.68;100.00
21129;BME280;10722;51.910;8.352;2023-02-23T12:14:39;100643.59;;;8.85;100.00
21129;BME280;10722;51.910;8.352;2023-02-23T12:17:42;100643.59;;;8.87;100.00
21129;BME280;10722;51.910;8.352;2023-02-23T12:20:36;100641.13;;;8.91;100.00
21129;BME280;10722;51.910;8.352;2023-02-23T12:23:28;100638.34;;;8.82;100.00
21129;BME280;10722;51.910;8.352;2023-02-23T12:26:19;100636.44;;;8.73;100.00
21129;BME280;10722;51.910;8.352;2023-02-23T12:32:03;100632.47;;;8.88;100.00
21129;BME280;10722;51.910;8.352;2023-02-23T12:38:30;100630.94;;;8.97;100.00
21129;BME280;10722;51.910;8.352;2023-02-23T12:41:35;100632.78;;;9.02;100.00
21129;BME280;10722;51.910;8.352;2023-02-23T12:44:34;100638.13;;;9.11;100.00
21129;BME280;10722;51.910;8.352;2023-02-23T12:50:28;100632.34;;;8.82;100.00
21129;BME280;10722;51.910;8.352;2023-02-23T12:53:28;100630.09;;;8.97;100.00
21129;BME280;10722;51.910;8.352;2023-02-23T13:02:28;100638.31;;;8.81;100.00
21129;BME280;10722;51.910;8.352;2023-02-23T13:05:30;100638.53;;;8.90;100.00
21129;BME280;10722;51.910;8.352;2023-02-23T13:23:25;100631.44;;;8.81;100.00
21129;BME280;10722;51.910;8.352;2023-02-23T13:32:02;100637.56;;;8.85;100.00
21129;BME280;10722;51.910;8.352;2023-02-23T13:34:53;100637.16;;;8.68;100.00
21129;BME280;10722;51.910;8.352;2023-02-23T13:40:58;100635.47;;;8.70;100.00
21129;BME280;10722;51.910;8.352;2023-02-23T13:44:00;100634.53;;;8.66;100.00
21129;BME280;10722;51.910;8.352;2023-02-23T13:46:55;100638.50;;;8.52;100.00
21129;BME280;10722;51.910;8.352;2023-02-23T13:49:50;100630.28;;;8.68;100.00
21129;BME280;10722;51.910;8.352;2023-02-23T13:52:41;100638.16;;;8.73;100.00
21129;BME280;10722;51.910;8.352;2023-02-23T13:58:31;100632.41;;;8.50;100.00
21129;BME280;10722;51.910;8.352;2023-02-23T14:01:20;100629.03;;;8.51;100.00
21129;BME280;10722;51.910;8.352;2023-02-23T14:04:13;100637.41;;;8.42;100.00
21129;BME280;10722;51.910;8.352;2023-02-23T14:07:03;100636.38;;;8.37;100.00
21129;BME280;10722;51.910;8.352;2023-02-23T14:10:05;100641.06;;;8.19;100.00
21129;BME280;10722;51.910;8.352;2023-02-23T14:21:58;100655.00;;;8.27;100.00
21129;BME280;10722;51.910;8.352;2023-02-23T14:24:45;100657.38;;;8.19;100.00
21129;BME280;10722;51.910;8.352;2023-02-23T14:27:42;100656.59;;;8.22;100.00
21129;BME280;10722;51.910;8.352;2023-02-23T14:30:42;100656.66;;;8.25;100.00
21129;BME280;10722;51.910;8.352;2023-02-23T14:39:14;100670.19;;;8.16;100.00
21129;BME280;10722;51.910;8.352;2023-02-23T14:42:05;100663.78;;;8.00;100.00
21129;BME280;10722;51.910;8.352;2023-02-23T14:44:52;100665.28;;;7.94;100.00
21129;BME280;10722;51.910;8.352;2023-02-23T14:47:45;100676.75;;;8.03;100.00
21129;BME280;10722;51.910;8.352;2023-02-23T14:50:33;100675.78;;;8.00;100.00
21129;BME280;10722;51.910;8.352;2023-02-23T14:53:21;100674.97;;;8.02;100.00
21129;BME280;10722;51.910;8.352;2023-02-23T14:56:20;100669.72;;;7.98;100.00
21129;BME280;10722;51.910;8.352;2023-02-23T14:59:07;100683.22;;;7.89;100.00
21129;BME280;10722;51.910;8.352;2023-02-23T15:01:53;100679.03;;;7.62;100.00
21129;BME280;10722;51.910;8.352;2023-02-23T15:04:38;100679.81;;;7.60;100.00
21129;BME280;10722;51.910;8.352;2023-02-23T15:10:35;100684.94;;;7.58;100.00
21129;BME280;10722;51.910;8.352;2023-02-23T15:13:30;100689.44;;;7.37;100.00
21129;BME280;10722;51.910;8.352;2023-02-23T15:16:35;100686.94;;;7.40;100.00
21129;BME280;10722;51.910;8.352;2023-02-23T15:19:21;100692.31;;;7.46;100.00
21129;BME280;10722;51.910;8.352;2023-02-23T15:22:20;100691.56;;;7.50;100.00
21129;BME280;10722;51.910;8.352;2023-02-23T15:25:16;100695.13;;;7.55;100.00
21129;BME280;10722;51.910;8.352;2023-02-23T15:28:23;100690.03;;;7.57;100.00
21129;BME280;10722;51.910;8.352;2023-02-23T15:31:09;100690.09;;;7.60;100.00
21129;BME280;10722;51.910;8.352;2023-02-23T15:33:54;100687.66;;;7.63;100.00
21129;BME280;10722;51.910;8.352;2023-02-23T15:36:40;100691.09;;;7.63;100.00
21129;BME280;10722;51.910;8.352;2023-02-23T15:39:49;100704.16;;;7.71;100.00
21129;BME280;10722;51.910;8.352;2023-02-23T15:42:38;100697.09;;;7.64;100.00
21129;BME280;10722;51.910;8.352;2023-02-23T15:48:19;100701.38;;;7.63;100.00
21129;BME280;10722;51.910;8.352;2023-02-23T15:51:04;100694.56;;;7.66;100.00
21129;BME280;10722;51.910;8.352;2023-02-23T15:53:50;100692.59;;;7.57;100.00
21129;BME280;10722;51.910;8.352;2023-02-23T15:56:36;100686.94;;;7.40;100.00
21129;BME280;10722;51.910;8.352;2023-02-23T15:59:26;100682.09;;;7.49;100.00
21129;BME280;10722;51.910;8.352;2023-02-23T16:02:15;100679.53;;;7.49;100.00
21129;BME280;10722;51.910;8.352;2023-02-23T16:05:22;100682.19;;;7.52;100.00
21129;BME280;10722;51.910;8.352;2023-02-23T16:08:18;100693.38;;;7.54;100.00
21129;BME280;10722;51.910;8.352;2023-02-23T16:11:14;100683.00;;;7.51;100.00
21129;BME280;10722;51.910;8.352;2023-02-23T16:14:03;100681.19;;;7.49;100.00
21129;BME280;10722;51.910;8.352;2023-02-23T16:16:51;100689.13;;;7.55;100.00
21129;BME280;10722;51.910;8.352;2023-02-23T16:20:20;100683.78;;;7.49;100.00
21129;BME280;10722;51.910;8.352;2023-02-23T16:23:36;100678.63;;;7.49;100.00
21129;BME280;10722;51.910;8.352;2023-02-23T16:26:24;100683.03;;;7.53;100.00
21129;BME280;10722;51.910;8.352;2023-02-23T16:29:14;100673.38;;;7.46;100.00
21129;BME280;10722;51.910;8.352;2023-02-23T16:32:08;100679.53;;;7.51;100.00
21129;BME280;10722;51.910;8.352;2023-02-23T16:34:59;100683.88;;;7.52;100.00
21129;BME280;10722;51.910;8.352;2023-02-23T16:37:57;100683.75;;;7.47;100.00
21129;BME280;10722;51.910;8.352;2023-02-23T16:40:44;100675.69;;;7.36;100.00
21129;BME280;10722;51.910;8.352;2023-02-23T16:43:32;100681.84;;;7.41;100.00
21129;BME280;10722;51.910;8.352;2023-02-23T16:46:19;100684.47;;;7.43;100.00
21129;BME280;10722;51.910;8.352;2023-02-23T16:49:11;100683.56;;;7.41;100.00